Sunday, September 21, 2014
22:17 UTC
  |  Log In   |  Register Free
Airport Search:

Okmulgee Regional Airport
(KOKM)

Okmulgee Regional Airport Diagram
No Airport Diagram Available

FAA data valid effective September 18, 2014 - November 13, 2014 (unless otherwise noted).

 
 
 
 
 
 
 
 
 
 
 
 
 
 

Current Aviation Weather for Okmulgee Regional Airport (KOKM)

The most recent METAR observation for KOKM was updated at: 2111
METAR Summary (Translated METAR)
KOKM
212055Z AUTO 02008KT 10SM CLR 28/14 A3011 RMK AO2 T02810137
KRVS
212053Z 04009KT 10SM CLR 28/11 A3011 RMK AO2 SLP200 T02780106 56012
(22.4 nm NW from KOKM)
KMKO
212053Z AUTO 36009KT 10SM FEW085 OVC110 27/14 A3011 RMK AO2 SLP188 60000 T02720144 55004
(28.6 nm SE from KOKM)
TAF Summary (Translated TAF)
KRVS
(22.4 nm NW from KOKM)
211728Z 2118/2218 03012KT P6SM VCSH BKN080 FM212000 03012KT P6SM SKC FM220200 04004KT P6SM SKC
  Airport Weather Conditions for KOKM

 Current Weather at OKM
83° F
Fair
North winds at 9.2 mph
OKM NOAA Radar

Pressure: 30.11 in
Humidity: 41%
Wind: North at 9.2 MPH (8 KT)
Dew Point: 56.7°F
Visibility: 10.00 mi


Airport Weather Forecast for KOKM

Translated METAR and TAF for KOKM
Translated METAR for KOKM (2211 UTC 21 September 2014)
found at http://aviationweather.gov/adds/metars/
 
METAR text: KOKM 212155Z AUTO 02006KT 10SM CLR 27/14 A3010 RMK AO2 T02660136
Conditions at: KOKM (OKMULGEE , OK, US) observed 2155 UTC 21 September 2014
Temperature: 26.6°C (80°F)
Dewpoint: 13.6°C (56°F) [RH = 45%]
Pressure (altimeter): 30.10 inches Hg (1019.4 mb)
Winds: from the NNE (20 degrees) at 7 MPH (6 knots; 3.1 m/s)
Visibility: 10 or more miles (16+ km)
Ceiling: at least 12,000 feet AGL
Clouds: sky clear below 12,000 feet AGL
Weather: automated observation with no human augmentation;
there may or may not be significant weather present at this time
Translated TAF for KOKM

There is no translated TAF available for this airport

Find All Airport Services Find A Hotel Find A Rental Car Find A Golf Course Find A Restaurant $100 Hamburger



FBO's on the Field
FBO Company Facility Photos Services Transportation Aviation Fuel Prices: Prices include tax
Catering Weather Repair Courtesy Rental Type 100LL JetA JetA+ MOGAS 8087
 
Okmulgee Regional Airport

This FBO has not yet been rated
FS:Phillips66
Last Updated: Sep-19
Login to update fuel prices
SS:
Contact Okmulgee Regional AirportMore FBO Information
 
Add another FBO Facility Photos Catering Weather Repair Courtesy Rental Type 100LL JetA JetA+ MOGAS 8087
Services Transportation Aviation Fuel Prices: Prices include tax


model-print
model-print
model-print
model-print